Nearby METAR Reports

 

KMTN - Baltimore/Martin, Maryland, USA
Distance from station: SSE 8mi, 13km
Updated: Tue, 16-Jan-2018 9:45pm EST
Overcast
Overcast
 Wind from calm
Wind: Calm
Temperature: 32°F , 0°C
Dew Point: 32°F , 0°C
Humidity: 100%
Barometer: 30.37 inHg , 1028.4 hPa
Clouds: Overcast
Visibility: 7 miles , 11 km
Cloud details: Overcast 2700 ft
2018/01/17 02:45 KMTN 170245Z 00000KT 7SM OVC027 00/00 A3037 RMK LAST
KDMH - Baltimore/Dwntwn, Maryland, USA
Distance from station: SW 12mi, 19km
Updated: Tue, 16-Jan-2018 8:54pm EST

 
Temperature: 36°F , 2°C
Dew Point: 30°F , -1°C
Humidity: 81%
Barometer: 30.36 inHg , 1028.1 hPa
2018/01/17 01:54 KDMH 170154Z AUTO 02/M01 A3036 RMK AO1 SLP279 T00221006
 
KBWI - Balto/Wash Intl, Maryland, USA
Distance from station: SSW 20mi, 33km
Updated: Tue, 16-Jan-2018 8:54pm EST
Mist, Overcast
Mist, Overcast
 Wind from E
Wind: E 5 mph , 7 km/h
Temperature: 34°F , 1°C
Wind Chill: 29°F , -2°C
Dew Point: 30°F , -1°C
Humidity: 87%
Barometer: 30.35 inHg , 1027.8 hPa
Summary: Mist
Clouds: Overcast
Visibility: 6 miles , 10 km
Cloud details: Few Clouds 9000 ft
Mostly cloudy 12000 ft
Overcast 16000 ft
2018/01/17 01:54 KBWI 170154Z 09004KT 6SM BR FEW090 BKN120 OVC160 01/M01 A3035 RMK AO2 SLP277 T00061006
KDMW - Carroll Cnty, Maryland, USA
Distance from station: WNW 30mi, 48km
Updated: Tue, 16-Jan-2018 9:35pm EST
Light snow, Overcast
Light snow, Overcast
 Wind from calm
Wind: Calm
Temperature: 30°F , -1°C
Dew Point: 30°F , -1°C
Humidity: 100%
Barometer: 30.33 inHg , 1027.1 hPa
Summary: Light Snow
Clouds: Overcast
Visibility: 1 3/4 miles , 5 km
Cloud details: Mostly cloudy 1000 ft
Mostly cloudy 1500 ft
Overcast 2700 ft
2018/01/17 02:35 KDMW 170235Z AUTO 00000KT 1 3/4SM -SN BKN010 BKN015 OVC027 M01/M01 A3033 RMK AO2
 
KNAK - Annapolis/Naval, Maryland, USA
Distance from station: S 30mi, 48km
Updated: Tue, 16-Jan-2018 8:54pm EST
Mist, Clear
Mist, Clear
 Wind from calm
Wind: Calm
Temperature: 34°F , 1°C
Dew Point: 32°F , 0°C
Humidity: 93%
Barometer: 30.36 inHg , 1028.1 hPa
Summary: Mist
Clouds: Clear
Visibility: 6 miles , 10 km
2018/01/17 01:54 KNAK 170154Z AUTO 00000KT 6SM BR CLR 01/00 A3036 RMK AO2 SLP281 T00110000
KW29 - Stevensville, Maryland, USA
Distance from station: SSE 31mi, 50km
Updated: Tue, 16-Jan-2018 9:35pm EST
Mist, Clear
Mist, Clear
 Wind from calm
Wind: Calm
Temperature: 32°F , 0°C
Dew Point: 30°F , -1°C
Humidity: 93%
Barometer: 30.35 inHg , 1027.8 hPa
Summary: Mist
Clouds: Clear
Visibility: 5 miles , 8 km
2018/01/17 02:35 KW29 170235Z AUTO 00000KT 5SM BR CLR 00/M01 A3035 RMK AO2
 
KCGS - College Park, Maryland, USA
Distance from station: SW 38mi, 61km
Updated: Tue, 16-Jan-2018 9:37pm EST
Overcast
Overcast
 Wind from calm
Wind: Calm
Temperature: 32°F , 0°C
Dew Point: 27°F , -3°C
Humidity: 80%
Barometer: 30.35 inHg , 1027.8 hPa
Clouds: Overcast
Visibility: 10 miles , 16 km
Cloud details: Mostly cloudy 7500 ft
Overcast 10000 ft
2018/01/17 02:37 KCGS 170237Z AUTO 00000KT 10SM BKN075 OVC100 00/M03 A3035 RMK AO1 T10011034
KGAI - Gaithersburg, Maryland, USA
Distance from station: WSW 40mi, 65km
Updated: Tue, 16-Jan-2018 8:56pm EST
Overcast
Overcast
 Wind from calm
Wind: Calm
Temperature: 34°F , 1°C
Dew Point: 23°F , -5°C
Humidity: 65%
Barometer: 30.34 inHg , 1027.4 hPa
Clouds: Overcast
Visibility: 10 miles , 16 km
Cloud details: Overcast 5500 ft
2018/01/17 01:56 KGAI 170156Z AUTO 00000KT 10SM OVC055 01/M05 A3034 RMK AO2 SLP307 T00061050 FZRANO
 
KTHV - York, Pennsylvania, USA
Distance from station: NNW 40mi, 65km
Updated: Tue, 16-Jan-2018 9:41pm EST
Light snow, Mist, Overcast
Light snow, Mist, Overcast
 Wind from calm
Wind: Calm
Temperature: 30°F , -1°C
Dew Point: 30°F , -1°C
Humidity: 100%
Barometer: 30.34 inHg , 1027.4 hPa
Summary: Light snow, Mist
Clouds: Overcast
Visibility: 1 mile , 2 km
Cloud details: Partly cloudy 1300 ft
Overcast 2900 ft
2018/01/17 02:41 KTHV 170241Z AUTO 00000KT 1SM -SN BR SCT013 OVC029 M01/M01 A3034 RMK AO2 P0000 T10111011
KFDK - Frederick, Maryland, USA
Distance from station: W 47mi, 75km
Updated: Tue, 16-Jan-2018 9:35pm EST
Light snow, Overcast
Light snow, Overcast
 Wind from N
Wind: N 6 mph , 9 km/h
Temperature: 32°F , 0°C
Wind Chill: 26°F , -3°C
Dew Point: 32°F , 0°C
Humidity: 100%
Barometer: 30.39 inHg , 1029.1 hPa
Summary: Light Snow
Clouds: Overcast
Visibility: 4 miles , 6 km
Cloud details: Partly cloudy 4200 ft
Mostly cloudy 6000 ft
Overcast 7500 ft
2018/01/17 02:35 KFDK 170235Z AUTO 36005KT 4SM -SN SCT042 BKN060 OVC075 00/00 A3039 RMK AO2
 
KESN - Easton/Newnam, Maryland, USA
Distance from station: SSE 48mi, 78km
Updated: Tue, 16-Jan-2018 9:50pm EST
Mostly cloudy
Mostly cloudy
 Wind from calm
Wind: Calm
Temperature: 36°F , 2°C
Dew Point: 30°F , -1°C
Humidity: 81%
Barometer: 30.37 inHg , 1028.4 hPa
Clouds: Mostly cloudy
Visibility: 10 miles , 16 km
Cloud details: Mostly cloudy 1700 ft
2018/01/17 02:50 KESN 170250Z 00000KT 10SM BKN017 02/M01 A3037
KDCA - Washington/Natl, Washington D.c., USA
Distance from station: SW 49mi, 79km
Updated: Tue, 16-Jan-2018 8:52pm EST
Overcast
Overcast
 Wind from calm
Wind: Calm
Temperature: 37°F , 3°C
Dew Point: 25°F , -4°C
Humidity: 60%
Barometer: 30.36 inHg , 1028.1 hPa
Clouds: Overcast
Visibility: 10 miles , 16 km
Cloud details: Mostly cloudy 12000 ft
Overcast 15000 ft
2018/01/17 01:52 KDCA 170152Z 00000KT 10SM BKN120 OVC150 03/M04 A3036 RMK AO2 SLP280 T00281039
 
KLNS - Lancaster, Pennsylvania, USA
Distance from station: N 49mi, 79km
Updated: Tue, 16-Jan-2018 9:25pm EST
Light snow, Mist, Overcast
Light snow, Mist, Overcast
 Wind from WNW
Wind: WNW 6 mph , 9 km/h
Temperature: 32°F , 0°C
Wind Chill: 26°F , -3°C
Dew Point: 32°F , 0°C
Humidity: 100%
Barometer: 30.35 inHg , 1027.8 hPa
Summary: Light snow, Mist
Clouds: Overcast
Visibility: 1 1/4 miles , 2 km
Cloud details: Mostly cloudy 2200 ft
Overcast 2800 ft
2018/01/17 02:25 KLNS 170225Z 29005KT 1 1/4SM -SN BR BKN022 OVC028 00/00 A3035 RMK AO2 SNB0156 P0000 T00000000
KILG - Wilmington, Delaware, USA
Distance from station: ENE 50mi, 81km
Updated: Tue, 16-Jan-2018 9:39pm EST
Overcast
Overcast
 Wind from NW
Wind: NW 3 mph , 6 km/h
Temperature: 36°F , 2°C
Dew Point: 32°F , 0°C
Humidity: 87%
Barometer: 30.35 inHg , 1027.8 hPa
Clouds: Overcast
Visibility: 10 miles , 16 km
Cloud details: Mostly cloudy 2200 ft
Mostly cloudy 3000 ft
Overcast 3500 ft
2018/01/17 02:39 KILG 170239Z 32003KT 10SM BKN022 BKN030 OVC035 02/00 A3035 RMK AO2 T00220000